Time;durP1;ratioP1;P1;durP2;ratioP2;P2;SDS_P1;SDS_P2;PMS_P1;PMS_P2;Temp;Humidity;BMP_temperature;BMP_pressure;BME280_temperature;BME280_humidity;BME280_pressure;Samples;Min_cycle;Max_cycle;Signal;HPM_P1;HPM_P2
2022/08/11 00:02:13;;;;;;;4.60;4.03;;;;;;;21.95;69.45;99933.25;5095052;28;19911;-88
2022/08/11 00:04:40;;;;;;;6.45;4.00;;;;;;;21.93;69.66;99935.38;5075421;28;20047;-89
2022/08/11 00:07:08;;;;;;;6.05;3.88;;;;;;;21.86;70.02;99923.25;5091906;28;20057;-89
2022/08/11 00:09:36;;;;;;;6.18;3.92;;;;;;;21.93;70.06;99926.53;5093490;28;20115;-89
2022/08/11 00:12:03;;;;;;;10.18;4.25;;;;;;;21.90;70.70;99919.81;5097978;28;20477;-89
2022/08/11 00:14:31;;;;;;;4.68;3.60;;;;;;;21.88;70.91;99926.47;5092226;28;20028;-88
2022/08/11 00:17:02;;;;;;;4.30;3.45;;;;;;;21.80;71.35;99922.34;5095341;28;20028;-90
2022/08/11 00:19:31;;;;;;;5.63;3.28;;;;;;;21.78;71.53;99922.59;5080967;28;20110;-90
2022/08/11 00:21:58;;;;;;;4.95;3.50;;;;;;;21.75;71.83;99917.75;5098190;28;20028;-90
2022/08/11 00:24:31;;;;;;;3.97;3.58;;;;;;;21.73;72.04;99925.22;5096286;28;20034;-88
2022/08/11 00:27:00;;;;;;;4.45;3.75;;;;;;;21.75;72.21;99920.41;5078608;28;20053;-89
2022/08/11 00:29:26;;;;;;;3.83;3.35;;;;;;;21.74;72.50;99913.47;5081643;28;20058;-89
2022/08/11 00:31:54;;;;;;;4.28;3.35;;;;;;;21.73;73.04;99919.88;5097043;28;20091;-88
2022/08/11 00:34:23;;;;;;;4.47;3.70;;;;;;;21.72;73.29;99918.25;5096986;28;20048;-90
2022/08/11 00:36:53;;;;;;;5.05;3.53;;;;;;;21.70;73.74;99915.03;5079976;28;20139;-88
2022/08/11 00:39:22;;;;;;;6.20;3.92;;;;;;;21.73;73.91;99916.41;5072227;28;20027;-89
2022/08/11 00:41:54;;;;;;;4.30;3.70;;;;;;;21.72;73.86;99917.44;5097030;28;20077;-88
2022/08/11 00:44:50;;;;;;;3.97;3.55;;;;;;;21.70;74.09;99923.03;5077899;28;20414;-89
2022/08/11 00:47:18;;;;;;;7.53;3.80;;;;;;;21.63;74.41;99915.16;5092890;28;20036;-89
2022/08/11 00:50:16;;;;;;;7.15;3.50;;;;;;;21.73;74.34;99916.41;5073267;28;20060;-89
2022/08/11 00:53:35;;;;;;;5.07;3.90;;;;;;;21.66;74.51;99909.34;5094047;28;20012;-88
2022/08/11 00:56:17;;;;;;;3.40;3.10;;;;;;;21.61;74.95;99911.09;5054955;28;20062;-89
2022/08/11 00:59:01;;;;;;;4.47;3.60;;;;;;;21.61;75.08;99905.75;5088777;28;20098;-88
2022/08/11 01:01:36;;;;;;;8.13;3.53;;;;;;;21.63;75.07;99914.38;5074753;28;20078;-89
2022/08/11 01:04:37;;;;;;;4.75;3.28;;;;;;;21.55;75.13;99913.72;5072447;28;20031;-90
2022/08/11 01:07:17;;;;;;;6.25;3.58;;;;;;;21.49;75.46;99898.69;5082576;28;20100;-89
2022/08/11 01:09:48;;;;;;;5.03;3.78;;;;;;;21.54;75.44;99904.09;5073427;28;20059;-90
2022/08/11 01:12:43;;;;;;;3.85;3.20;;;;;;;21.57;75.52;99910.00;5096189;28;20035;-89
2022/08/11 01:15:21;;;;;;;4.93;3.65;;;;;;;;;;5074801;28;20043;-90
2022/08/11 01:18:16;;;;;;;4.80;3.35;;;;;;;21.49;75.71;99908.53;5092670;28;20087;-89
2022/08/11 01:20:51;;;;;;;3.78;3.38;;;;;;;21.45;76.19;99908.25;5073940;28;20494;-89
2022/08/11 01:24:02;;;;;;;4.72;3.25;;;;;;;21.43;76.55;99906.88;5070383;28;20096;-90
2022/08/11 01:27:02;;;;;;;5.70;3.45;;;;;;;21.34;77.11;99907.28;5065996;28;20037;-89
2022/08/11 01:30:06;;;;;;;5.72;3.47;;;;;;;21.30;77.90;99905.34;5090823;28;20462;-90
2022/08/11 01:32:50;;;;;;;3.45;3.13;;;;;;;21.26;78.04;99905.84;5075122;28;20047;-90
2022/08/11 01:35:41;;;;;;;3.25;3.00;;;;;;;21.22;78.44;99904.72;5076290;28;20048;-90
2022/08/11 01:38:46;;;;;;;3.90;3.22;;;;;;;21.15;78.82;99898.72;5093223;28;20053;-90
2022/08/11 01:45:09;;;;;;;4.20;3.08;;;;;;;21.09;79.95;99899.69;5091525;28;20033;-89
2022/08/11 01:47:56;;;;;;;3.60;3.30;;;;;;;21.04;80.29;99911.09;5071069;28;20037;-90
2022/08/11 01:50:41;;;;;;;4.53;2.92;;;;;;;21.05;80.39;99899.38;5074406;28;20039;-90
2022/08/11 01:53:37;;;;;;;4.03;3.30;;;;;;;20.99;80.90;99905.69;5077474;28;20421;-89
2022/08/11 01:56:25;;;;;;;4.05;3.03;;;;;;;20.99;80.93;99905.69;5069944;28;20025;-90
2022/08/11 01:59:16;;;;;;;3.35;3.05;;;;;;;20.97;81.15;99908.59;5075112;28;20028;-89
2022/08/11 02:02:14;;;;;;;4.72;3.20;;;;;;;20.92;81.25;99903.16;5094954;28;20511;-90
2022/08/11 02:05:20;;;;;;;3.78;3.00;;;;;;;20.89;81.32;99900.16;5074195;28;20047;-88
2022/08/11 02:08:00;;;;;;;5.28;3.20;;;;;;;20.89;81.54;99902.84;5072940;28;20033;-90
2022/08/11 02:13:57;;;;;;;3.15;2.95;;;;;;;20.85;81.82;99891.84;5092798;28;20036;-89
2022/08/11 02:16:47;;;;;;;3.35;2.83;;;;;;;20.89;82.05;99897.50;5075039;28;20060;-89
2022/08/11 02:25:22;;;;;;;3.42;3.15;;;;;;;20.77;82.49;99889.53;5077477;28;20127;-90
2022/08/11 02:28:10;;;;;;;4.10;2.80;;;;;;;20.81;82.93;99899.53;5079307;28;20025;-90
2022/08/11 02:33:21;;;;;;;3.88;3.38;;;;;;;20.75;83.10;99899.66;5095847;28;20060;-89
2022/08/11 02:33:42;;;;;;;3.70;3.00;;;;;;;20.73;83.52;99901.75;5091263;28;20058;-89
2022/08/11 02:36:21;;;;;;;5.72;3.45;;;;;;;20.72;83.55;99894.81;5077444;28;20039;-90
2022/08/11 02:39:08;;;;;;;3.70;3.05;;;;;;;20.68;83.66;99895.28;5087740;28;20029;-89
2022/08/11 02:44:56;;;;;;;4.47;3.38;;;;;;;20.61;84.38;99894.59;5094609;28;20039;-89
2022/08/11 02:50:53;;;;;;;4.80;2.92;;;;;;;20.49;84.81;99883.22;5093818;28;20028;-89
2022/08/11 02:53:58;;;;;;;3.45;3.15;;;;;;;20.39;84.71;99870.50;5093137;28;20086;-90
2022/08/11 02:57:03;;;;;;;3.67;3.30;;;;;;;20.47;84.97;99888.78;5092407;28;20101;-88
2022/08/11 03:00:03;;;;;;;5.80;3.35;;;;;;;20.36;85.35;99893.09;5078232;28;20025;-88
2022/08/11 03:02:52;;;;;;;3.50;3.20;;;;;;;20.38;85.31;99890.22;5077990;28;20031;-90
2022/08/11 03:05:41;;;;;;;3.95;3.47;;;;;;;20.28;85.73;99890.84;5103929;28;20052;-88
2022/08/11 03:08:17;;;;;;;3.42;3.15;;;;;;;20.28;85.84;99890.84;5099346;28;20041;-88
2022/08/11 03:17:20;;;;;;;3.90;3.40;;;;;;;20.21;86.27;99896.31;5102119;28;20067;-90
2022/08/11 03:20:03;;;;;;;5.72;4.03;;;;;;;20.12;86.28;99887.88;5084789;28;20036;-89
2022/08/11 03:22:37;;;;;;;4.78;4.05;;;;;;;20.12;86.66;99893.19;5103192;28;20505;-89
2022/08/11 03:25:07;;;;;;;;;;;;;;;20.12;86.75;99893.19;5110353;28;20077;-89
2022/08/11 03:27:52;;;;;;;5.60;3.80;;;;;;;20.09;87.05;99896.34;5101992;28;19912;-89
2022/08/11 03:30:32;;;;;;;4.65;3.60;;;;;;;20.06;86.94;99894.16;5097028;28;20028;-88
2022/08/11 03:36:34;;;;;;;5.57;3.55;;;;;;;20.00;87.68;99895.09;5092972;28;20487;-89
2022/08/11 03:39:03;;;;;;;6.28;3.58;;;;;;;19.94;87.91;99894.16;5092206;28;20037;-89
2022/08/11 03:41:46;;;;;;;3.83;3.53;;;;;;;19.92;88.12;99898.91;5090440;28;20486;-88
2022/08/11 03:44:46;;;;;;;4.13;3.75;;;;;;;19.97;88.02;99891.06;5077146;28;20107;-89
2022/08/11 03:47:40;;;;;;;7.07;4.00;;;;;;;19.94;88.50;99896.03;5101312;28;20020;-88
2022/08/11 03:50:23;;;;;;;6.32;3.58;;;;;;;19.99;88.55;99882.81;5096830;28;20038;-88
2022/08/11 03:53:13;;;;;;;5.60;3.85;;;;;;;20.01;88.67;99875.38;5090034;28;20070;-89
2022/08/11 03:56:01;;;;;;;6.30;4.13;;;;;;;20.05;88.67;99881.88;5094494;28;20035;-89
2022/08/11 03:58:28;;;;;;;5.45;3.85;;;;;;;19.92;88.99;99880.28;5079863;28;20039;-89
2022/08/11 04:01:25;;;;;;;5.93;4.07;;;;;;;19.95;89.01;99876.34;5074405;28;20029;-88
2022/08/11 04:03:57;;;;;;;4.25;3.85;;;;;;;19.88;89.52;99880.97;5089247;28;20026;-90
2022/08/11 04:06:46;;;;;;;5.43;3.58;;;;;;;19.89;89.50;99874.59;5093581;28;20028;-88
2022/08/11 04:09:50;;;;;;;4.03;3.63;;;;;;;19.80;89.64;99877.59;5092704;28;20062;-88
2022/08/11 04:12:54;;;;;;;4.00;3.58;;;;;;;19.70;90.05;99880.06;5058768;28;20036;-88
2022/08/11 04:18:43;;;;;;;6.88;3.75;;;;;;;19.59;90.94;99878.22;5097774;28;20031;-89
2022/08/11 04:21:34;;;;;;;3.72;3.42;;;;;;;19.52;91.32;99884.50;5081450;28;20037;-89
2022/08/11 04:24:06;;;;;;;4.80;3.50;;;;;;;19.44;92.04;99882.16;5090901;28;20037;-88
2022/08/11 04:26:56;;;;;;;7.35;4.18;;;;;;;19.43;92.81;99885.06;5099391;28;20039;-88
2022/08/11 04:29:49;;;;;;;6.40;4.15;;;;;;;19.45;92.80;99886.44;5080859;28;20390;-89
2022/08/11 04:32:37;;;;;;;4.68;3.92;;;;;;;19.47;92.64;99876.41;5091585;28;20058;-88
2022/08/11 04:35:06;;;;;;;5.85;4.10;;;;;;;19.37;92.97;99877.00;5093515;28;20040;-89
2022/08/11 04:37:43;;;;;;;4.90;4.10;;;;;;;19.29;93.17;99884.50;5094669;28;20246;-89
2022/08/11 04:40:47;;;;;;;4.80;3.75;;;;;;;19.34;93.11;99876.63;5093980;28;20028;-89
2022/08/11 04:43:38;;;;;;;5.40;4.22;;;;;;;19.33;93.32;99878.47;5092998;28;20025;-89
2022/08/11 04:46:25;;;;;;;6.15;4.28;;;;;;;19.26;93.86;99886.59;5081318;28;20453;-89
2022/08/11 05:07:18;;;;;;;6.88;5.10;;;;;;;19.53;94.16;99880.78;5091489;28;20036;-90
2022/08/11 05:10:10;;;;;;;9.20;5.00;;;;;;;19.62;94.12;99883.91;5089561;28;20115;-89
2022/08/11 05:12:46;;;;;;;8.48;4.63;;;;;;;19.63;94.26;99880.19;5073365;28;20040;-89
2022/08/11 05:36:26;;;;;;;5.45;4.43;;;;;;;19.99;94.44;99893.47;5089552;28;20029;-89
2022/08/11 05:58:33;;;;;;;5.72;4.40;;;;;;;20.39;93.19;99892.63;5088093;28;20087;-89
2022/08/11 06:00:59;;;;;;;6.97;4.22;;;;;;;20.38;93.44;99885.69;5090861;28;20024;-87
2022/08/11 06:03:31;;;;;;;5.80;4.85;;;;;;;20.50;93.46;99890.94;5092505;28;20028;-89
2022/08/11 06:05:58;;;;;;;5.95;4.55;;;;;;;20.55;92.97;99896.41;5086921;28;20073;-87
2022/08/11 06:08:29;;;;;;;7.00;4.53;;;;;;;20.62;92.85;99895.44;5081776;28;20056;-88
2022/08/11 06:11:00;;;;;;;7.70;5.00;;;;;;;20.66;93.07;99904.56;5086207;28;20059;-88
2022/08/11 06:13:27;;;;;;;4.60;4.15;;;;;;;20.76;92.74;99887.94;5084065;28;20024;-89
2022/08/11 06:15:54;;;;;;;8.07;5.30;;;;;;;20.85;92.86;99894.53;5091842;28;20033;-89
2022/08/11 06:18:21;;;;;;;5.47;4.97;;;;;;;20.91;92.49;99898.88;5093338;28;20044;-88
2022/08/11 06:20:49;;;;;;;6.47;4.60;;;;;;;20.93;92.09;99895.97;5096103;28;20036;-89
2022/08/11 06:23:18;;;;;;;6.18;4.72;;;;;;;21.04;91.85;99902.28;5091409;28;20028;-89
2022/08/11 06:25:44;;;;;;;8.23;4.97;;;;;;;21.02;91.55;99896.38;5094739;28;20028;-89
2022/08/11 06:28:11;;;;;;;7.82;4.78;;;;;;;21.04;91.23;99887.06;5094135;28;20036;-88
2022/08/11 06:30:41;;;;;;;7.93;4.88;;;;;;;21.12;90.91;99893.88;5080248;28;20040;-90
2022/08/11 06:33:10;;;;;;;7.45;4.70;;;;;;;21.20;90.66;99898.00;5095902;28;20123;-89
2022/08/11 06:35:39;;;;;;;6.47;5.28;;;;;;;21.20;91.08;99896.13;5074526;28;20105;-89
2022/08/11 06:38:16;;;;;;;6.63;5.63;;;;;;;21.30;90.86;99894.66;5095299;28;20028;-90
2022/08/11 06:43:58;;;;;;;7.80;5.85;;;;;;;21.39;90.63;99899.34;5094104;28;20036;-89
2022/08/11 06:46:37;;;;;;;10.15;5.50;;;;;;;21.47;90.60;99897.31;5096696;28;20038;-88
2022/08/11 06:49:05;;;;;;;7.32;6.35;;;;;;;21.51;90.25;99891.22;5076079;28;20032;-87
2022/08/11 06:51:39;;;;;;;16.10;6.32;;;;;;;21.55;89.83;99903.03;5095826;28;20031;-90
2022/08/11 06:54:11;;;;;;;8.57;6.47;;;;;;;21.65;89.37;99901.59;5088284;28;20028;-90
2022/08/11 07:02:26;;;;;;;7.72;5.80;;;;;;;21.79;89.23;99892.16;5085096;28;20407;-89
2022/08/11 07:05:10;;;;;;;9.10;6.13;;;;;;;21.86;89.06;99901.84;5069810;28;20024;-88
2022/08/11 07:16:29;;;;;;;10.88;5.60;;;;;;;22.21;88.46;99898.00;5091721;28;20051;-88
2022/08/11 07:30:28;;;;;;;7.38;4.72;;;;;;;22.57;85.94;99900.25;5084011;28;20064;-87
2022/08/11 07:32:57;;;;;;;5.20;4.10;;;;;;;22.64;85.41;99893.63;5066601;28;20494;-88
2022/08/11 07:35:32;;;;;;;7.85;4.78;;;;;;;22.67;85.45;99887.75;5089595;28;20032;-89
2022/08/11 07:38:05;;;;;;;6.55;4.38;;;;;;;22.74;85.24;99884.06;5089564;28;20061;-85
2022/08/11 07:40:32;;;;;;;6.38;4.72;;;;;;;22.82;84.96;99894.31;5086673;28;20115;-86
2022/08/11 07:42:59;;;;;;;4.70;4.30;;;;;;;22.92;84.90;99886.34;5088827;28;20044;-88
2022/08/11 07:53:48;;;;;;;7.95;4.40;;;;;;;23.19;84.18;99890.84;5091469;28;20020;-89
2022/08/11 07:56:14;;;;;;;9.40;4.25;;;;;;;23.28;83.72;99877.00;5081544;28;20451;-91
2022/08/11 08:18:07;;;;;;;6.68;4.72;;;;;;;23.87;82.38;99877.81;5090610;28;20037;-86
2022/08/11 08:20:37;;;;;;;7.03;4.80;;;;;;;23.95;81.47;99885.34;5085088;28;20035;-88
2022/08/11 08:23:04;;;;;;;8.13;5.13;;;;;;;24.01;81.57;99876.25;5088032;28;20033;-85
2022/08/11 08:25:37;;;;;;;6.55;4.57;;;;;;;24.15;81.42;99878.44;5069280;28;20269;-87
2022/08/11 08:28:08;;;;;;;6.00;4.50;;;;;;;24.23;80.89;99875.25;5087977;28;20035;-88
2022/08/11 08:30:47;;;;;;;6.60;4.75;;;;;;;24.29;80.19;99874.19;5082569;28;20360;-86
2022/08/11 08:33:16;;;;;;;6.82;4.28;;;;;;;24.41;79.49;99870.47;5086877;28;20482;-87
2022/08/11 08:35:44;;;;;;;7.30;4.72;;;;;;;24.46;78.02;99878.50;5082040;28;20031;-87
2022/08/11 08:38:11;;;;;;;5.65;4.30;;;;;;;24.57;78.20;99876.66;5080360;28;20028;-86
2022/08/11 08:40:41;;;;;;;6.35;4.65;;;;;;;24.65;77.45;99870.72;5088486;28;20061;-87
2022/08/11 08:43:16;;;;;;;8.43;4.43;;;;;;;24.70;76.49;99869.94;5095502;28;20028;-91
2022/08/11 08:45:54;;;;;;;8.32;5.00;;;;;;;24.68;77.28;99865.66;5088046;28;20054;-90
2022/08/11 08:48:23;;;;;;;7.05;5.38;;;;;;;24.87;77.34;99886.63;5072483;28;20029;-90
2022/08/11 08:53:45;;;;;;;6.10;4.50;;;;;;;24.94;76.92;99872.91;5088697;28;20028;-88
2022/08/11 08:56:11;;;;;;;6.93;4.57;;;;;;;25.03;76.14;99878.56;5093700;28;20050;-90
2022/08/11 08:58:39;;;;;;;7.90;5.07;;;;;;;25.06;76.46;99878.81;5090607;28;20038;-90
2022/08/11 09:01:08;;;;;;;9.73;5.22;;;;;;;25.06;75.36;99884.19;5076929;28;20482;-91
2022/08/11 09:03:38;;;;;;;16.60;4.95;;;;;;;25.09;75.19;99875.59;5082642;28;20103;-88
2022/08/11 09:06:04;;;;;;;9.75;5.22;;;;;;;25.15;75.47;99872.88;5066617;28;20036;-89
2022/08/11 09:08:31;;;;;;;6.97;4.88;;;;;;;25.20;76.11;99865.63;5073076;28;20025;-90
2022/08/11 09:13:46;;;;;;;7.20;4.80;;;;;;;25.41;75.25;99856.69;5089309;28;20470;-87
2022/08/11 09:16:24;;;;;;;9.20;5.15;;;;;;;25.42;72.74;99848.38;5074759;28;20032;-88
2022/08/11 09:18:56;;;;;;;6.50;4.35;;;;;;;25.55;72.07;99863.13;5073394;28;20077;-88
2022/08/11 09:21:23;;;;;;;8.77;5.93;;;;;;;25.61;71.46;99858.56;5090448;28;20112;-90
2022/08/11 09:29:22;;;;;;;4.80;4.22;;;;;;;25.81;69.09;99861.16;5091698;28;20414;-89
2022/08/11 09:31:48;;;;;;;9.35;4.10;;;;;;;25.91;66.60;99862.16;5088936;28;20044;-90
2022/08/11 09:34:18;;;;;;;4.78;3.90;;;;;;;25.94;66.18;99851.66;5081998;28;20402;-92
2022/08/11 09:42:19;;;;;;;6.28;4.40;;;;;;;26.29;66.38;99846.34;5106868;28;20038;-90
2022/08/11 09:44:49;;;;;;;17.85;5.07;;;;;;;26.44;66.45;99852.72;5076781;28;20054;-90
2022/08/11 09:47:28;;;;;;;10.55;4.60;;;;;;;26.50;66.60;99852.41;5080848;28;20112;-89
2022/08/11 09:49:58;;;;;;;7.93;4.53;;;;;;;26.46;67.24;99840.59;5086558;28;20097;-91
2022/08/11 09:52:25;;;;;;;5.28;4.45;;;;;;;26.55;65.62;99826.53;5068905;28;20036;-90
2022/08/11 09:54:53;;;;;;;6.10;4.47;;;;;;;26.60;67.05;99824.59;5069935;28;20063;-90
2022/08/11 10:00:11;;;;;;;4.60;4.00;;;;;;;26.82;65.12;99842.19;5086332;28;20036;-90
2022/08/11 10:02:45;;;;;;;5.38;4.72;;;;;;;26.90;65.31;99827.31;5104641;28;20024;-91
2022/08/11 10:08:00;;;;;;;7.45;5.03;;;;;;;27.05;67.33;99837.13;5085785;28;20036;-91
2022/08/11 10:10:34;;;;;;;7.05;4.53;;;;;;;27.25;66.11;99832.59;5072839;28;20031;-90
2022/08/11 10:13:10;;;;;;;6.45;4.95;;;;;;;27.33;64.42;99834.69;5070455;28;20036;-90
2022/08/11 10:15:39;;;;;;;7.88;5.18;;;;;;;27.34;65.05;99828.22;5075854;28;20032;-91
2022/08/11 10:21:28;;;;;;;8.52;4.97;;;;;;;27.50;62.63;99840.38;5105551;28;20044;-90
2022/08/11 10:26:59;;;;;;;6.38;4.55;;;;;;;27.46;61.76;99817.78;5049196;28;20041;-90
2022/08/11 10:35:07;;;;;;;6.65;5.13;;;;;;;27.71;60.11;99828.59;5088748;28;20048;-90
2022/08/11 10:37:36;;;;;;;6.00;5.43;;;;;;;27.79;60.86;99820.66;5083784;28;20043;-91
2022/08/11 10:40:04;;;;;;;5.95;4.78;;;;;;;27.83;59.78;99820.06;5087293;28;20047;-90
2022/08/11 10:48:03;;;;;;;5.97;5.30;;;;;;;27.96;58.26;99813.94;5096027;28;20403;-91
2022/08/11 11:01:17;;;;;;;7.07;5.30;;;;;;;28.13;55.83;99815.31;5099237;28;20029;-91
2022/08/11 11:03:43;;;;;;;5.75;4.70;;;;;;;28.24;54.74;99814.09;5080950;28;20032;-90
2022/08/11 11:06:16;;;;;;;6.90;5.20;;;;;;;28.29;53.50;99811.28;5074390;28;20029;-90
2022/08/11 11:08:52;;;;;;;12.18;5.18;;;;;;;28.30;52.99;99802.13;5076190;28;20554;-90
2022/08/11 11:17:54;;;;;;;7.63;5.05;;;;;;;28.53;52.70;99810.38;5104686;28;20032;-90
2022/08/11 11:19:38;;;;;;;7.13;5.18;;;;;;;28.45;50.88;99792.16;5100042;28;20044;-90
2022/08/11 11:25:16;;;;;;;7.28;5.00;;;;;;;28.67;51.61;99810.41;5093984;28;20052;-91
2022/08/11 11:28:11;;;;;;;10.93;5.60;;;;;;;28.60;50.95;99788.41;5092963;28;20039;-91
2022/08/11 11:30:58;;;;;;;5.30;4.90;;;;;;;28.58;51.46;99795.97;5091611;28;20028;-91
2022/08/11 11:34:03;;;;;;;5.70;5.10;;;;;;;28.67;51.88;99805.00;5091950;28;20035;-90
2022/08/11 11:36:49;;;;;;;5.75;5.25;;;;;;;28.64;51.49;99801.00;5077136;28;20051;-90
2022/08/11 11:39:31;;;;;;;6.82;5.65;;;;;;;28.64;51.75;99792.88;5089025;28;20025;-91
2022/08/11 11:42:03;;;;;;;6.15;4.85;;;;;;;28.72;51.19;99801.44;5087987;28;20036;-90
2022/08/11 11:44:30;;;;;;;5.72;5.25;;;;;;;28.73;50.45;99803.81;5071558;28;20059;-90
2022/08/11 11:46:59;;;;;;;5.97;5.38;;;;;;;28.85;50.60;99806.06;5071138;28;20556;-90
2022/08/11 11:49:28;;;;;;;5.88;5.25;;;;;;;28.98;50.37;99804.47;5097683;28;20066;-90
2022/08/11 11:51:55;;;;;;;5.72;5.25;;;;;;;29.03;49.86;99790.88;5076622;28;20058;-90
2022/08/11 11:54:32;;;;;;;6.32;5.72;;;;;;;29.04;48.71;99797.06;5070162;28;20044;-90
2022/08/11 12:01:14;;;;;;;6.95;4.75;;;;;;;29.03;49.86;99784.66;5073879;28;20032;-90
2022/08/11 12:02:34;;;;;;;5.78;5.13;;;;;;;29.18;49.45;99780.84;5096545;28;20040;-90
2022/08/11 12:05:01;;;;;;;6.15;5.05;;;;;;;29.19;50.55;99785.94;5079137;28;20108;-90
2022/08/11 12:10:17;;;;;;;7.78;5.20;;;;;;;29.12;50.12;99773.94;5106366;28;20494;-90
2022/08/11 12:15:30;;;;;;;9.32;5.60;;;;;;;29.31;47.89;99784.66;5089233;28;20036;-90
2022/08/11 12:17:58;;;;;;;6.45;5.53;;;;;;;29.36;48.36;99782.63;5080123;28;20085;-90
2022/08/11 12:20:25;;;;;;;8.50;5.50;;;;;;;29.48;48.12;99760.50;5073566;28;20042;-91
2022/08/11 12:28:22;;;;;;;6.35;5.75;;;;;;;29.79;46.30;99773.34;5083798;28;20050;-90
2022/08/11 12:30:52;;;;;;;6.10;5.57;;;;;;;29.67;45.87;99747.94;5097103;28;20062;-90
2022/08/11 12:33:19;;;;;;;6.00;5.40;;;;;;;29.78;46.06;99760.13;5090740;28;20039;-90
2022/08/11 12:35:51;;;;;;;7.32;5.55;;;;;;;29.79;45.74;99767.94;5101304;28;20036;-90
2022/08/11 12:38:20;;;;;;;7.13;5.90;;;;;;;29.78;46.02;99754.72;5070366;28;20498;-92
2022/08/11 12:46:30;;;;;;;7.18;5.65;;;;;;;30.25;48.17;99767.16;5105938;28;20028;-90
2022/08/11 12:51:58;;;;;;;9.05;5.35;;;;;;;30.46;49.24;99762.00;5106525;28;20038;-89
2022/08/11 12:54:53;;;;;;;14.02;6.28;;;;;;;30.39;47.23;99745.41;5078057;28;20030;-90
2022/08/11 13:05:37;;;;;;;9.50;5.55;;;;;;;30.65;46.78;99737.44;5093028;28;20099;-90
2022/08/11 13:08:05;;;;;;;8.70;5.53;;;;;;;30.82;47.10;99736.69;5096860;28;20100;-90
2022/08/11 13:13:19;;;;;;;5.97;5.40;;;;;;;30.92;45.53;99731.00;5090013;28;20039;-88
2022/08/11 13:15:48;;;;;;;6.47;5.65;;;;;;;30.96;45.92;99727.66;5070403;28;20032;-87
2022/08/11 13:18:22;;;;;;;9.98;5.70;;;;;;;31.03;45.49;99730.69;5082456;28;20029;-87
2022/08/11 13:20:51;;;;;;;9.40;5.70;;;;;;;31.08;45.27;99727.84;5075229;28;20036;-86
2022/08/11 13:23:17;;;;;;;9.70;5.65;;;;;;;30.99;47.01;99718.88;5082968;28;20028;-86
2022/08/11 13:25:43;;;;;;;8.13;6.00;;;;;;;31.19;45.90;99718.28;5069641;28;20028;-88
2022/08/11 13:28:11;;;;;;;10.43;5.97;;;;;;;31.32;46.09;99721.22;5086674;28;20455;-88
2022/08/11 13:33:25;;;;;;;8.13;5.40;;;;;;;31.54;44.21;99709.38;5089201;28;20045;-87
2022/08/11 13:35:53;;;;;;;7.90;5.40;;;;;;;31.64;44.45;99710.97;5085727;28;20028;-86
2022/08/11 13:38:21;;;;;;;9.45;5.70;;;;;;;31.71;43.47;99711.31;5061732;28;20498;-85
2022/08/11 13:40:48;;;;;;;5.32;4.93;;;;;;;31.62;43.18;99713.22;5081287;28;20036;-85
2022/08/11 13:43:16;;;;;;;6.07;5.07;;;;;;;31.75;43.77;99706.84;5062425;28;20051;-86
2022/08/11 13:45:45;;;;;;;7.15;5.10;;;;;;;31.81;44.53;99703.97;5078243;28;20024;-89
2022/08/11 13:48:11;;;;;;;8.55;4.95;;;;;;;31.87;43.10;99705.44;5075590;28;20623;-87
2022/08/11 13:53:25;;;;;;;9.75;5.82;;;;;;;31.95;42.38;99701.88;5078846;28;20040;-84
2022/08/11 13:55:51;;;;;;;5.75;5.18;;;;;;;31.99;42.41;99704.75;5080527;28;20047;-87
2022/08/11 13:58:19;;;;;;;5.90;5.35;;;;;;;32.08;41.72;99704.75;5082576;28;20371;-87
2022/08/11 14:00:48;;;;;;;7.13;5.68;;;;;;;32.18;41.11;99701.66;5083505;28;20028;-87
2022/08/11 14:03:18;;;;;;;7.13;6.43;;;;;;;32.18;41.40;99698.94;5084339;28;20493;-85
2022/08/11 14:05:50;;;;;;;9.32;6.38;;;;;;;32.05;40.81;99706.16;5090172;28;20519;-85
2022/08/11 14:08:23;;;;;;;9.48;6.03;;;;;;;31.96;40.71;99706.19;5080435;28;21022;-87
2022/08/11 14:13:36;;;;;;;6.97;5.88;;;;;;;31.85;40.30;99699.53;5082678;28;20031;-85
2022/08/11 14:13:39;;;;;;;9.73;5.85;;;;;;;31.71;39.74;99700.47;5078178;28;20381;-86
2022/08/11 14:16:18;;;;;;;6.50;5.95;;;;;;;31.92;40.83;99699.81;5081706;28;20029;-89
2022/08/11 14:18:47;;;;;;;6.10;5.50;;;;;;;32.04;41.97;99693.72;5082201;28;20024;-87
2022/08/11 14:24:03;;;;;;;5.47;4.95;;;;;;;32.45;40.20;99694.25;5081546;28;20024;-88
2022/08/11 14:26:35;;;;;;;9.55;7.68;;;;;;;32.45;40.66;99694.25;5086510;28;20029;-88
2022/08/11 14:29:16;;;;;;;8.40;7.25;;;;;;;32.46;40.14;99690.41;5085429;28;20063;-87
2022/08/11 14:31:57;;;;;;;10.05;7.72;;;;;;;32.47;38.97;99681.16;5083890;28;20024;-86
2022/08/11 14:34:27;;;;;;;8.93;7.78;;;;;;;32.62;40.10;99677.88;5088745;28;20044;-87
2022/08/11 14:36:59;;;;;;;7.95;7.10;;;;;;;32.71;40.45;99677.81;5086741;28;20029;-86
2022/08/11 14:39:34;;;;;;;11.53;8.30;;;;;;;32.78;39.46;99674.56;5065993;28;20505;-88
2022/08/11 14:47:39;;;;;;;9.23;7.18;;;;;;;32.91;39.18;99672.75;5080693;28;20489;-83
2022/08/11 14:50:07;;;;;;;8.23;6.90;;;;;;;32.95;38.51;99667.47;5057969;28;20563;-82
2022/08/11 14:52:36;;;;;;;8.10;7.30;;;;;;;32.93;37.93;99670.53;5086616;28;20453;-83
2022/08/11 14:57:50;;;;;;;7.70;6.95;;;;;;;32.96;37.55;99669.06;5078784;28;20064;-82
2022/08/11 15:00:17;;;;;;;7.95;6.32;;;;;;;32.83;39.31;99663.53;5081568;28;20467;-85
2022/08/11 15:05:30;;;;;;;9.40;7.40;;;;;;;33.05;37.90;99667.09;5079681;28;21596;-82
2022/08/11 15:07:58;;;;;;;10.18;7.00;;;;;;;33.00;38.02;99664.53;5065752;28;20033;-83
2022/08/11 15:10:24;;;;;;;7.25;6.60;;;;;;;33.13;37.42;99660.00;5061095;28;20109;-84
2022/08/11 15:12:53;;;;;;;6.82;6.10;;;;;;;33.21;37.64;99652.88;5081146;28;20052;-84
2022/08/11 15:18:09;;;;;;;7.75;6.30;;;;;;;33.32;37.24;99643.19;5076346;28;20139;-83
2022/08/11 15:26:09;;;;;;;6.28;5.22;;;;;;;33.26;35.48;99647.25;5077827;28;20060;-83
2022/08/11 15:37:26;;;;;;;8.25;5.35;;;;;;;33.11;35.16;99637.75;5076139;28;20094;-81
2022/08/11 15:45:51;;;;;;;6.07;5.57;;;;;;;33.53;34.62;99631.50;5088702;28;20058;-82
2022/08/11 15:48:32;;;;;;;5.65;5.15;;;;;;;33.71;35.31;99627.47;5076737;28;20067;-82
2022/08/11 15:51:21;;;;;;;5.43;5.00;;;;;;;33.74;35.09;99621.34;5081908;28;20032;-82
2022/08/11 15:53:57;;;;;;;7.05;5.45;;;;;;;33.89;34.27;99628.06;5066159;28;20035;-81
2022/08/11 15:56:26;;;;;;;6.35;5.15;;;;;;;34.09;34.42;99624.84;5061945;28;20048;-83
2022/08/11 16:04:29;;;;;;;6.38;5.40;;;;;;;34.29;32.71;99614.94;5079674;28;20386;-81
2022/08/11 16:07:10;;;;;;;7.35;5.35;;;;;;;34.28;32.89;99616.06;5093265;28;20070;-82
2022/08/11 16:09:58;;;;;;;7.75;5.20;;;;;;;34.46;33.02;99611.97;5071566;28;20036;-81
2022/08/11 16:18:21;;;;;;;5.65;5.18;;;;;;;34.75;31.87;99601.16;5083431;28;20028;-82
2022/08/11 16:20:50;;;;;;;5.75;5.10;;;;;;;34.85;31.43;99605.34;5063542;28;20025;-82
2022/08/11 16:23:17;;;;;;;7.53;4.75;;;;;;;35.02;30.77;99596.13;5065158;28;20036;-82
2022/08/11 16:25:45;;;;;;;6.13;4.88;;;;;;;35.49;30.98;99604.78;5082929;28;20156;-82
2022/08/11 16:28:14;;;;;;;5.43;4.93;;;;;;;36.08;30.52;99596.94;5084932;28;20020;-82
2022/08/11 16:30:42;;;;;;;5.32;4.82;;;;;;;36.69;31.03;99600.25;5084283;28;20024;-82
2022/08/11 16:33:10;;;;;;;5.18;4.68;;;;;;;37.39;28.25;99598.53;5075831;28;20039;-82
2022/08/11 16:38:35;;;;;;;5.97;4.90;;;;;;;39.20;27.36;99596.88;5083671;28;20370;-82
2022/08/11 16:41:07;;;;;;;5.60;4.90;;;;;;;39.68;26.82;99593.44;5081004;28;20046;-81
2022/08/11 16:49:19;;;;;;;6.47;4.70;;;;;;;42.60;24.77;99583.59;5079930;28;20028;-80
2022/08/11 16:51:46;;;;;;;5.28;4.78;;;;;;;43.39;24.60;99584.34;5079373;28;20067;-79
2022/08/11 16:54:12;;;;;;;5.22;4.78;;;;;;;44.04;23.48;99591.31;5084137;28;20043;-80
2022/08/11 16:56:44;;;;;;;5.13;4.72;;;;;;;44.66;22.83;99588.66;5080568;28;20032;-79
2022/08/11 16:59:33;;;;;;;5.45;4.90;;;;;;;45.18;21.08;99584.00;5080531;28;20089;-80
2022/08/11 17:02:10;;;;;;;5.63;4.97;;;;;;;45.66;20.77;99581.28;5066065;28;20038;-80
2022/08/11 17:13:09;;;;;;;6.32;5.03;;;;;;;47.58;19.23;99575.28;5086433;28;20111;-81
2022/08/11 17:18:41;;;;;;;5.10;4.70;;;;;;;47.58;18.67;99569.72;5094193;28;20102;-84
2022/08/11 17:23:45;;;;;;;6.03;4.75;;;;;;;47.79;18.93;99577.97;5053721;28;20035;-83
2022/08/11 17:24:27;;;;;;;5.20;4.53;;;;;;;48.16;18.16;99561.84;5054721;28;20033;-85
2022/08/11 17:26:56;;;;;;;6.00;5.07;;;;;;;48.03;18.71;99556.25;5058552;28;20049;-85
2022/08/11 17:29:29;;;;;;;6.90;4.78;;;;;;;48.20;17.91;99565.31;5095771;28;20039;-86